sensor_id;sensor_type;location;lat;lon;timestamp;P1;durP1;ratioP1;P2;durP2;ratioP2
21330;SDS011;10824;51.632;4.950;2023-11-21T00:00:01;10.55;;;5.63;;
21330;SDS011;10824;51.632;4.950;2023-11-21T00:02:39;9.85;;;5.93;;
21330;SDS011;10824;51.632;4.950;2023-11-21T00:05:08;9.95;;;4.82;;
21330;SDS011;10824;51.632;4.950;2023-11-21T00:07:37;12.38;;;4.70;;
21330;SDS011;10824;51.632;4.950;2023-11-21T00:10:04;11.75;;;6.13;;
21330;SDS011;10824;51.632;4.950;2023-11-21T00:12:32;7.97;;;4.22;;
21330;SDS011;10824;51.632;4.950;2023-11-21T00:15:00;9.45;;;4.78;;
21330;SDS011;10824;51.632;4.950;2023-11-21T00:17:28;14.35;;;4.63;;
21330;SDS011;10824;51.632;4.950;2023-11-21T00:19:56;9.68;;;4.60;;
21330;SDS011;10824;51.632;4.950;2023-11-21T00:22:25;11.23;;;4.97;;
21330;SDS011;10824;51.632;4.950;2023-11-21T00:24:53;10.88;;;3.72;;
21330;SDS011;10824;51.632;4.950;2023-11-21T00:27:20;12.60;;;4.63;;
21330;SDS011;10824;51.632;4.950;2023-11-21T00:29:47;8.35;;;4.97;;
21330;SDS011;10824;51.632;4.950;2023-11-21T00:32:14;7.70;;;5.28;;
21330;SDS011;10824;51.632;4.950;2023-11-21T00:34:41;5.72;;;4.18;;
21330;SDS011;10824;51.632;4.950;2023-11-21T00:37:09;7.32;;;4.10;;
21330;SDS011;10824;51.632;4.950;2023-11-21T00:39:36;6.35;;;3.95;;
21330;SDS011;10824;51.632;4.950;2023-11-21T00:42:05;5.78;;;4.22;;
21330;SDS011;10824;51.632;4.950;2023-11-21T00:44:32;10.95;;;4.78;;
21330;SDS011;10824;51.632;4.950;2023-11-21T00:47:01;7.05;;;3.70;;
21330;SDS011;10824;51.632;4.950;2023-11-21T00:49:29;8.35;;;4.55;;
21330;SDS011;10824;51.632;4.950;2023-11-21T00:51:56;8.48;;;4.03;;
21330;SDS011;10824;51.632;4.950;2023-11-21T00:54:26;8.85;;;3.85;;
21330;SDS011;10824;51.632;4.950;2023-11-21T00:56:59;9.02;;;3.90;;
21330;SDS011;10824;51.632;4.950;2023-11-21T00:59:26;14.02;;;5.05;;
21330;SDS011;10824;51.632;4.950;2023-11-21T01:01:53;13.43;;;4.10;;
21330;SDS011;10824;51.632;4.950;2023-11-21T01:04:22;12.43;;;6.40;;
21330;SDS011;10824;51.632;4.950;2023-11-21T01:06:49;13.20;;;4.90;;
21330;SDS011;10824;51.632;4.950;2023-11-21T01:09:16;9.15;;;6.25;;
21330;SDS011;10824;51.632;4.950;2023-11-21T01:11:45;12.60;;;4.90;;
21330;SDS011;10824;51.632;4.950;2023-11-21T01:14:13;10.15;;;4.25;;
21330;SDS011;10824;51.632;4.950;2023-11-21T01:16:40;9.00;;;3.97;;
21330;SDS011;10824;51.632;4.950;2023-11-21T01:19:07;15.90;;;5.05;;
21330;SDS011;10824;51.632;4.950;2023-11-21T01:21:36;13.18;;;4.47;;
21330;SDS011;10824;51.632;4.950;2023-11-21T01:24:03;9.80;;;4.85;;
21330;SDS011;10824;51.632;4.950;2023-11-21T01:26:33;10.50;;;4.18;;
21330;SDS011;10824;51.632;4.950;2023-11-21T01:29:01;9.68;;;3.70;;
21330;SDS011;10824;51.632;4.950;2023-11-21T01:31:28;8.95;;;3.92;;
21330;SDS011;10824;51.632;4.950;2023-11-21T01:33:56;10.10;;;3.28;;
21330;SDS011;10824;51.632;4.950;2023-11-21T01:36:29;5.82;;;2.92;;
21330;SDS011;10824;51.632;4.950;2023-11-21T01:38:59;8.70;;;2.90;;
21330;SDS011;10824;51.632;4.950;2023-11-21T01:41:26;9.13;;;3.72;;
21330;SDS011;10824;51.632;4.950;2023-11-21T01:43:55;10.43;;;3.20;;
21330;SDS011;10824;51.632;4.950;2023-11-21T01:46:23;7.38;;;3.22;;
21330;SDS011;10824;51.632;4.950;2023-11-21T01:48:51;7.43;;;2.90;;
21330;SDS011;10824;51.632;4.950;2023-11-21T01:51:20;5.60;;;3.35;;
21330;SDS011;10824;51.632;4.950;2023-11-21T01:53:47;8.45;;;4.40;;
21330;SDS011;10824;51.632;4.950;2023-11-21T01:56:15;3.97;;;2.92;;
21330;SDS011;10824;51.632;4.950;2023-11-21T01:58:43;7.47;;;4.57;;
21330;SDS011;10824;51.632;4.950;2023-11-21T02:01:10;6.15;;;2.75;;
21330;SDS011;10824;51.632;4.950;2023-11-21T02:03:38;10.80;;;3.65;;
21330;SDS011;10824;51.632;4.950;2023-11-21T02:06:07;6.10;;;3.75;;
21330;SDS011;10824;51.632;4.950;2023-11-21T02:08:35;5.43;;;2.60;;
21330;SDS011;10824;51.632;4.950;2023-11-21T02:11:04;6.90;;;4.55;;
21330;SDS011;10824;51.632;4.950;2023-11-21T02:13:32;6.25;;;3.80;;
21330;SDS011;10824;51.632;4.950;2023-11-21T02:15:59;4.28;;;3.05;;
21330;SDS011;10824;51.632;4.950;2023-11-21T02:18:28;4.85;;;2.70;;
21330;SDS011;10824;51.632;4.950;2023-11-21T02:20:56;5.50;;;2.83;;
21330;SDS011;10824;51.632;4.950;2023-11-21T02:23:23;3.20;;;2.28;;
21330;SDS011;10824;51.632;4.950;2023-11-21T02:25:55;5.03;;;3.03;;
21330;SDS011;10824;51.632;4.950;2023-11-21T02:28:28;4.25;;;3.00;;
21330;SDS011;10824;51.632;4.950;2023-11-21T02:30:55;6.72;;;3.42;;
21330;SDS011;10824;51.632;4.950;2023-11-21T02:33:24;6.25;;;2.95;;
21330;SDS011;10824;51.632;4.950;2023-11-21T02:35:52;3.60;;;2.45;;
21330;SDS011;10824;51.632;4.950;2023-11-21T02:38:21;7.47;;;4.45;;
21330;SDS011;10824;51.632;4.950;2023-11-21T02:40:48;4.00;;;2.70;;
21330;SDS011;10824;51.632;4.950;2023-11-21T02:43:16;4.38;;;2.45;;
21330;SDS011;10824;51.632;4.950;2023-11-21T02:45:44;4.38;;;3.13;;
21330;SDS011;10824;51.632;4.950;2023-11-21T02:48:11;7.30;;;3.15;;
21330;SDS011;10824;51.632;4.950;2023-11-21T02:50:38;4.97;;;2.90;;
21330;SDS011;10824;51.632;4.950;2023-11-21T02:53:06;3.47;;;2.60;;
21330;SDS011;10824;51.632;4.950;2023-11-21T02:55:33;6.25;;;3.05;;
21330;SDS011;10824;51.632;4.950;2023-11-21T02:58:03;6.05;;;3.13;;
21330;SDS011;10824;51.632;4.950;2023-11-21T03:00:30;6.57;;;3.75;;
21330;SDS011;10824;51.632;4.950;2023-11-21T03:02:58;8.70;;;2.95;;
21330;SDS011;10824;51.632;4.950;2023-11-21T03:05:26;5.45;;;3.45;;
21330;SDS011;10824;51.632;4.950;2023-11-21T03:07:53;4.63;;;2.53;;
21330;SDS011;10824;51.632;4.950;2023-11-21T03:10:20;5.97;;;3.40;;
21330;SDS011;10824;51.632;4.950;2023-11-21T03:12:48;3.80;;;2.80;;
21330;SDS011;10824;51.632;4.950;2023-11-21T03:15:15;5.80;;;3.88;;
21330;SDS011;10824;51.632;4.950;2023-11-21T03:17:43;4.70;;;3.70;;
21330;SDS011;10824;51.632;4.950;2023-11-21T03:20:10;3.75;;;2.40;;
21330;SDS011;10824;51.632;4.950;2023-11-21T03:22:38;14.60;;;4.88;;
21330;SDS011;10824;51.632;4.950;2023-11-21T03:25:06;4.03;;;2.97;;
21330;SDS011;10824;51.632;4.950;2023-11-21T03:27:37;9.00;;;2.78;;
21330;SDS011;10824;51.632;4.950;2023-11-21T03:30:07;8.90;;;3.85;;
21330;SDS011;10824;51.632;4.950;2023-11-21T03:32:35;7.65;;;3.20;;
21330;SDS011;10824;51.632;4.950;2023-11-21T03:35:03;5.30;;;3.65;;
21330;SDS011;10824;51.632;4.950;2023-11-21T03:37:32;8.15;;;3.80;;
21330;SDS011;10824;51.632;4.950;2023-11-21T03:40:00;4.10;;;2.55;;
21330;SDS011;10824;51.632;4.950;2023-11-21T03:42:27;5.50;;;2.95;;
21330;SDS011;10824;51.632;4.950;2023-11-21T03:44:56;3.92;;;2.65;;
21330;SDS011;10824;51.632;4.950;2023-11-21T03:47:27;5.78;;;2.92;;
21330;SDS011;10824;51.632;4.950;2023-11-21T03:49:55;5.82;;;3.60;;
21330;SDS011;10824;51.632;4.950;2023-11-21T03:52:22;4.80;;;2.95;;
21330;SDS011;10824;51.632;4.950;2023-11-21T03:54:51;4.07;;;3.28;;
21330;SDS011;10824;51.632;4.950;2023-11-21T03:57:18;6.18;;;3.72;;
21330;SDS011;10824;51.632;4.950;2023-11-21T03:59:45;4.25;;;2.63;;
21330;SDS011;10824;51.632;4.950;2023-11-21T04:02:12;6.10;;;3.85;;
21330;SDS011;10824;51.632;4.950;2023-11-21T04:04:39;6.68;;;3.65;;
21330;SDS011;10824;51.632;4.950;2023-11-21T04:07:07;5.75;;;3.15;;
21330;SDS011;10824;51.632;4.950;2023-11-21T04:09:34;8.70;;;4.25;;
21330;SDS011;10824;51.632;4.950;2023-11-21T04:12:02;6.97;;;3.78;;
21330;SDS011;10824;51.632;4.950;2023-11-21T04:14:30;9.20;;;4.95;;
21330;SDS011;10824;51.632;4.950;2023-11-21T04:16:57;7.53;;;3.75;;
21330;SDS011;10824;51.632;4.950;2023-11-21T04:19:24;7.68;;;3.10;;
21330;SDS011;10824;51.632;4.950;2023-11-21T04:21:52;5.82;;;3.35;;
21330;SDS011;10824;51.632;4.950;2023-11-21T04:24:19;5.97;;;3.42;;
21330;SDS011;10824;51.632;4.950;2023-11-21T04:26:46;5.53;;;3.85;;
21330;SDS011;10824;51.632;4.950;2023-11-21T04:29:13;8.35;;;5.88;;
21330;SDS011;10824;51.632;4.950;2023-11-21T04:31:40;7.72;;;4.40;;
21330;SDS011;10824;51.632;4.950;2023-11-21T04:34:08;4.57;;;4.03;;
21330;SDS011;10824;51.632;4.950;2023-11-21T04:36:35;5.32;;;3.28;;
21330;SDS011;10824;51.632;4.950;2023-11-21T04:39:02;6.03;;;4.05;;
21330;SDS011;10824;51.632;4.950;2023-11-21T04:41:29;7.93;;;4.97;;
21330;SDS011;10824;51.632;4.950;2023-11-21T04:43:58;6.75;;;4.38;;
21330;SDS011;10824;51.632;4.950;2023-11-21T04:46:27;8.77;;;4.22;;
21330;SDS011;10824;51.632;4.950;2023-11-21T04:48:55;10.25;;;4.55;;
21330;SDS011;10824;51.632;4.950;2023-11-21T04:51:22;8.32;;;3.95;;
21330;SDS011;10824;51.632;4.950;2023-11-21T04:53:49;8.70;;;5.03;;
21330;SDS011;10824;51.632;4.950;2023-11-21T04:56:16;9.43;;;5.07;;
21330;SDS011;10824;51.632;4.950;2023-11-21T04:58:43;10.52;;;5.38;;
21330;SDS011;10824;51.632;4.950;2023-11-21T05:01:11;4.80;;;3.10;;
21330;SDS011;10824;51.632;4.950;2023-11-21T05:03:38;13.13;;;4.93;;
21330;SDS011;10824;51.632;4.950;2023-11-21T05:06:05;16.05;;;6.82;;
21330;SDS011;10824;51.632;4.950;2023-11-21T05:08:33;10.35;;;6.00;;
21330;SDS011;10824;51.632;4.950;2023-11-21T05:11:00;8.10;;;4.60;;
21330;SDS011;10824;51.632;4.950;2023-11-21T05:13:27;12.00;;;5.00;;
21330;SDS011;10824;51.632;4.950;2023-11-21T05:15:55;8.48;;;4.68;;
21330;SDS011;10824;51.632;4.950;2023-11-21T05:18:25;4.32;;;3.33;;
21330;SDS011;10824;51.632;4.950;2023-11-21T05:20:56;13.90;;;4.38;;
21330;SDS011;10824;51.632;4.950;2023-11-21T05:23:24;8.82;;;4.28;;
21330;SDS011;10824;51.632;4.950;2023-11-21T05:25:51;8.57;;;3.65;;
21330;SDS011;10824;51.632;4.950;2023-11-21T05:28:18;9.20;;;4.80;;
21330;SDS011;10824;51.632;4.950;2023-11-21T05:30:46;9.60;;;4.82;;
21330;SDS011;10824;51.632;4.950;2023-11-21T05:33:13;10.07;;;5.05;;
21330;SDS011;10824;51.632;4.950;2023-11-21T05:35:40;7.47;;;4.90;;
21330;SDS011;10824;51.632;4.950;2023-11-21T05:38:07;9.10;;;4.13;;
21330;SDS011;10824;51.632;4.950;2023-11-21T05:40:38;11.10;;;4.93;;
21330;SDS011;10824;51.632;4.950;2023-11-21T05:43:06;10.80;;;4.97;;
21330;SDS011;10824;51.632;4.950;2023-11-21T05:45:34;8.55;;;4.68;;
21330;SDS011;10824;51.632;4.950;2023-11-21T05:48:04;12.10;;;3.55;;
21330;SDS011;10824;51.632;4.950;2023-11-21T05:50:32;9.48;;;4.63;;
21330;SDS011;10824;51.632;4.950;2023-11-21T05:52:59;10.65;;;3.85;;
21330;SDS011;10824;51.632;4.950;2023-11-21T05:55:27;10.35;;;4.10;;
21330;SDS011;10824;51.632;4.950;2023-11-21T05:57:55;10.57;;;4.63;;
21330;SDS011;10824;51.632;4.950;2023-11-21T06:00:22;11.85;;;4.70;;
21330;SDS011;10824;51.632;4.950;2023-11-21T06:02:54;11.40;;;5.35;;
21330;SDS011;10824;51.632;4.950;2023-11-21T06:05:23;8.02;;;5.93;;
21330;SDS011;10824;51.632;4.950;2023-11-21T06:07:55;10.40;;;3.92;;
21330;SDS011;10824;51.632;4.950;2023-11-21T06:10:25;8.65;;;5.15;;
21330;SDS011;10824;51.632;4.950;2023-11-21T06:12:53;8.18;;;4.63;;
21330;SDS011;10824;51.632;4.950;2023-11-21T06:15:20;11.82;;;7.10;;
21330;SDS011;10824;51.632;4.950;2023-11-21T06:17:49;7.55;;;5.10;;
21330;SDS011;10824;51.632;4.950;2023-11-21T06:20:20;10.73;;;4.45;;
21330;SDS011;10824;51.632;4.950;2023-11-21T06:22:50;10.98;;;5.40;;
21330;SDS011;10824;51.632;4.950;2023-11-21T06:25:18;7.85;;;3.75;;
21330;SDS011;10824;51.632;4.950;2023-11-21T06:27:46;9.52;;;4.00;;
21330;SDS011;10824;51.632;4.950;2023-11-21T06:30:14;9.57;;;4.45;;
21330;SDS011;10824;51.632;4.950;2023-11-21T06:32:42;10.18;;;4.05;;
21330;SDS011;10824;51.632;4.950;2023-11-21T06:35:14;11.02;;;4.43;;
21330;SDS011;10824;51.632;4.950;2023-11-21T06:37:43;10.30;;;4.72;;
21330;SDS011;10824;51.632;4.950;2023-11-21T06:40:16;10.48;;;4.32;;
21330;SDS011;10824;51.632;4.950;2023-11-21T06:45:15;9.43;;;3.47;;
21330;SDS011;10824;51.632;4.950;2023-11-21T06:47:43;7.18;;;3.95;;
21330;SDS011;10824;51.632;4.950;2023-11-21T06:50:11;7.20;;;3.42;;
21330;SDS011;10824;51.632;4.950;2023-11-21T06:52:38;7.97;;;3.88;;
21330;SDS011;10824;51.632;4.950;2023-11-21T06:55:06;8.00;;;4.47;;
21330;SDS011;10824;51.632;4.950;2023-11-21T06:57:35;10.98;;;4.05;;
21330;SDS011;10824;51.632;4.950;2023-11-21T07:00:02;7.18;;;3.75;;
21330;SDS011;10824;51.632;4.950;2023-11-21T07:02:31;5.32;;;4.15;;
21330;SDS011;10824;51.632;4.950;2023-11-21T07:04:58;6.35;;;3.42;;
21330;SDS011;10824;51.632;4.950;2023-11-21T07:07:25;6.85;;;3.20;;
21330;SDS011;10824;51.632;4.950;2023-11-21T07:09:54;11.15;;;5.30;;
21330;SDS011;10824;51.632;4.950;2023-11-21T07:12:21;6.95;;;3.58;;
21330;SDS011;10824;51.632;4.950;2023-11-21T07:14:50;7.20;;;3.38;;
21330;SDS011;10824;51.632;4.950;2023-11-21T07:17:17;7.32;;;4.68;;
21330;SDS011;10824;51.632;4.950;2023-11-21T07:19:44;8.73;;;4.25;;
21330;SDS011;10824;51.632;4.950;2023-11-21T07:22:11;9.43;;;4.13;;
21330;SDS011;10824;51.632;4.950;2023-11-21T07:24:39;11.82;;;4.30;;
21330;SDS011;10824;51.632;4.950;2023-11-21T07:27:07;8.45;;;4.18;;
21330;SDS011;10824;51.632;4.950;2023-11-21T07:29:34;9.13;;;4.50;;
21330;SDS011;10824;51.632;4.950;2023-11-21T07:32:02;9.45;;;4.43;;
21330;SDS011;10824;51.632;4.950;2023-11-21T07:34:29;9.68;;;3.97;;
21330;SDS011;10824;51.632;4.950;2023-11-21T07:36:56;7.60;;;3.70;;
21330;SDS011;10824;51.632;4.950;2023-11-21T07:39:23;9.27;;;4.63;;
21330;SDS011;10824;51.632;4.950;2023-11-21T07:41:50;9.10;;;4.35;;
21330;SDS011;10824;51.632;4.950;2023-11-21T07:44:17;12.25;;;4.80;;
21330;SDS011;10824;51.632;4.950;2023-11-21T07:46:47;9.38;;;3.65;;
21330;SDS011;10824;51.632;4.950;2023-11-21T07:49:16;9.60;;;4.30;;
21330;SDS011;10824;51.632;4.950;2023-11-21T07:51:47;7.22;;;3.97;;
21330;SDS011;10824;51.632;4.950;2023-11-21T07:54:15;7.50;;;4.68;;
21330;SDS011;10824;51.632;4.950;2023-11-21T07:56:42;10.57;;;4.75;;
21330;SDS011;10824;51.632;4.950;2023-11-21T07:59:11;7.55;;;4.22;;
21330;SDS011;10824;51.632;4.950;2023-11-21T08:01:40;8.65;;;4.63;;
21330;SDS011;10824;51.632;4.950;2023-11-21T08:04:10;9.73;;;4.00;;
21330;SDS011;10824;51.632;4.950;2023-11-21T08:06:37;6.80;;;4.18;;
21330;SDS011;10824;51.632;4.950;2023-11-21T08:09:04;8.82;;;5.15;;
21330;SDS011;10824;51.632;4.950;2023-11-21T08:11:31;6.93;;;3.60;;
21330;SDS011;10824;51.632;4.950;2023-11-21T08:13:59;9.10;;;4.78;;
21330;SDS011;10824;51.632;4.950;2023-11-21T08:16:26;12.23;;;4.50;;
21330;SDS011;10824;51.632;4.950;2023-11-21T08:18:54;12.13;;;5.75;;
21330;SDS011;10824;51.632;4.950;2023-11-21T08:21:21;12.18;;;4.70;;
21330;SDS011;10824;51.632;4.950;2023-11-21T08:23:51;11.32;;;5.38;;
21330;SDS011;10824;51.632;4.950;2023-11-21T08:26:21;8.05;;;4.68;;
21330;SDS011;10824;51.632;4.950;2023-11-21T08:28:49;6.57;;;3.50;;
21330;SDS011;10824;51.632;4.950;2023-11-21T08:31:16;8.02;;;3.60;;
21330;SDS011;10824;51.632;4.950;2023-11-21T08:33:46;10.27;;;4.22;;
21330;SDS011;10824;51.632;4.950;2023-11-21T08:36:13;8.48;;;4.20;;
21330;SDS011;10824;51.632;4.950;2023-11-21T08:38:40;7.97;;;3.95;;
21330;SDS011;10824;51.632;4.950;2023-11-21T08:41:07;6.63;;;3.65;;
21330;SDS011;10824;51.632;4.950;2023-11-21T08:43:35;5.88;;;2.78;;
21330;SDS011;10824;51.632;4.950;2023-11-21T08:46:09;6.57;;;3.10;;
21330;SDS011;10824;51.632;4.950;2023-11-21T08:49:00;7.70;;;3.53;;
21330;SDS011;10824;51.632;4.950;2023-11-21T08:55:48;6.10;;;3.47;;
21330;SDS011;10824;51.632;4.950;2023-11-21T08:58:24;6.05;;;2.50;;
21330;SDS011;10824;51.632;4.950;2023-11-21T09:00:51;4.57;;;2.53;;
21330;SDS011;10824;51.632;4.950;2023-11-21T09:03:18;10.30;;;4.25;;
21330;SDS011;10824;51.632;4.950;2023-11-21T09:05:46;5.00;;;1.90;;
21330;SDS011;10824;51.632;4.950;2023-11-21T09:08:13;5.72;;;2.63;;
21330;SDS011;10824;51.632;4.950;2023-11-21T09:10:40;5.57;;;2.55;;
21330;SDS011;10824;51.632;4.950;2023-11-21T09:13:09;4.60;;;2.05;;
21330;SDS011;10824;51.632;4.950;2023-11-21T09:15:36;6.07;;;2.33;;
21330;SDS011;10824;51.632;4.950;2023-11-21T09:18:03;7.70;;;2.10;;
21330;SDS011;10824;51.632;4.950;2023-11-21T09:20:31;6.07;;;2.53;;
21330;SDS011;10824;51.632;4.950;2023-11-21T09:22:59;3.45;;;2.67;;
21330;SDS011;10824;51.632;4.950;2023-11-21T09:25:26;3.42;;;1.80;;
21330;SDS011;10824;51.632;4.950;2023-11-21T09:27:55;4.00;;;2.45;;
21330;SDS011;10824;51.632;4.950;2023-11-21T09:30:24;4.95;;;2.33;;
21330;SDS011;10824;51.632;4.950;2023-11-21T09:32:51;3.15;;;1.65;;
21330;SDS011;10824;51.632;4.950;2023-11-21T09:35:18;3.38;;;1.90;;
21330;SDS011;10824;51.632;4.950;2023-11-21T09:37:45;3.60;;;2.03;;
21330;SDS011;10824;51.632;4.950;2023-11-21T09:40:15;2.55;;;1.85;;
21330;SDS011;10824;51.632;4.950;2023-11-21T09:42:58;6.78;;;2.10;;
21330;SDS011;10824;51.632;4.950;2023-11-21T09:45:28;7.13;;;1.80;;
21330;SDS011;10824;51.632;4.950;2023-11-21T09:48:00;3.05;;;1.80;;
21330;SDS011;10824;51.632;4.950;2023-11-21T09:50:28;3.70;;;1.90;;
21330;SDS011;10824;51.632;4.950;2023-11-21T09:53:03;7.20;;;2.65;;
21330;SDS011;10824;51.632;4.950;2023-11-21T09:55:43;5.00;;;1.95;;
21330;SDS011;10824;51.632;4.950;2023-11-21T09:58:12;3.17;;;1.58;;
21330;SDS011;10824;51.632;4.950;2023-11-21T10:00:41;2.58;;;1.55;;
21330;SDS011;10824;51.632;4.950;2023-11-21T10:03:12;4.38;;;1.80;;
21330;SDS011;10824;51.632;4.950;2023-11-21T10:05:44;5.00;;;1.98;;
21330;SDS011;10824;51.632;4.950;2023-11-21T10:08:14;3.50;;;1.60;;
21330;SDS011;10824;51.632;4.950;2023-11-21T10:10:43;2.28;;;1.55;;
21330;SDS011;10824;51.632;4.950;2023-11-21T10:13:16;4.45;;;1.92;;
21330;SDS011;10824;51.632;4.950;2023-11-21T10:15:50;4.60;;;1.65;;
21330;SDS011;10824;51.632;4.950;2023-11-21T10:18:18;4.20;;;2.03;;
21330;SDS011;10824;51.632;4.950;2023-11-21T10:20:46;4.60;;;1.67;;
21330;SDS011;10824;51.632;4.950;2023-11-21T10:23:19;4.13;;;1.27;;
21330;SDS011;10824;51.632;4.950;2023-11-21T10:25:50;3.80;;;1.98;;
21330;SDS011;10824;51.632;4.950;2023-11-21T10:28:19;3.17;;;1.75;;
21330;SDS011;10824;51.632;4.950;2023-11-21T10:30:47;3.10;;;1.58;;
21330;SDS011;10824;51.632;4.950;2023-11-21T10:33:14;2.10;;;1.38;;
21330;SDS011;10824;51.632;4.950;2023-11-21T10:35:43;2.47;;;1.92;;
21330;SDS011;10824;51.632;4.950;2023-11-21T10:38:17;2.97;;;1.75;;
21330;SDS011;10824;51.632;4.950;2023-11-21T10:40:48;3.63;;;2.72;;
21330;SDS011;10824;51.632;4.950;2023-11-21T10:43:17;2.88;;;1.52;;
21330;SDS011;10824;51.632;4.950;2023-11-21T10:45:45;2.92;;;2.05;;
21330;SDS011;10824;51.632;4.950;2023-11-21T10:48:13;1.85;;;1.15;;
21330;SDS011;10824;51.632;4.950;2023-11-21T10:50:45;3.47;;;1.90;;
21330;SDS011;10824;51.632;4.950;2023-11-21T10:53:13;3.88;;;1.75;;
21330;SDS011;10824;51.632;4.950;2023-11-21T10:55:42;4.85;;;2.85;;
21330;SDS011;10824;51.632;4.950;2023-11-21T10:58:13;2.03;;;1.08;;
21330;SDS011;10824;51.632;4.950;2023-11-21T11:00:41;1.52;;;1.40;;
21330;SDS011;10824;51.632;4.950;2023-11-21T11:03:12;1.38;;;1.00;;
21330;SDS011;10824;51.632;4.950;2023-11-21T11:05:46;5.68;;;1.52;;
21330;SDS011;10824;51.632;4.950;2023-11-21T11:08:20;3.15;;;1.25;;
21330;SDS011;10824;51.632;4.950;2023-11-21T11:10:54;3.15;;;1.58;;
21330;SDS011;10824;51.632;4.950;2023-11-21T11:13:21;1.55;;;1.20;;
21330;SDS011;10824;51.632;4.950;2023-11-21T11:15:49;3.90;;;1.38;;
21330;SDS011;10824;51.632;4.950;2023-11-21T11:18:17;2.17;;;1.30;;
21330;SDS011;10824;51.632;4.950;2023-11-21T11:20:47;2.25;;;1.60;;
21330;SDS011;10824;51.632;4.950;2023-11-21T11:23:30;3.83;;;2.42;;
21330;SDS011;10824;51.632;4.950;2023-11-21T11:27:29;1.90;;;1.20;;
21330;SDS011;10824;51.632;4.950;2023-11-21T11:30:06;2.40;;;1.30;;
21330;SDS011;10824;51.632;4.950;2023-11-21T11:32:58;2.55;;;1.17;;
21330;SDS011;10824;51.632;4.950;2023-11-21T11:38:21;2.30;;;1.50;;
21330;SDS011;10824;51.632;4.950;2023-11-21T11:40:53;6.85;;;1.80;;
21330;SDS011;10824;51.632;4.950;2023-11-21T11:43:27;4.68;;;2.22;;
21330;SDS011;10824;51.632;4.950;2023-11-21T11:45:57;4.43;;;1.83;;
21330;SDS011;10824;51.632;4.950;2023-11-21T11:48:30;5.25;;;2.05;;
21330;SDS011;10824;51.632;4.950;2023-11-21T11:51:11;5.72;;;3.15;;
21330;SDS011;10824;51.632;4.950;2023-11-21T11:53:41;5.07;;;2.83;;
21330;SDS011;10824;51.632;4.950;2023-11-21T11:58:55;3.95;;;1.88;;
21330;SDS011;10824;51.632;4.950;2023-11-21T12:01:26;4.00;;;2.33;;
21330;SDS011;10824;51.632;4.950;2023-11-21T12:06:53;3.38;;;1.70;;
21330;SDS011;10824;51.632;4.950;2023-11-21T12:09:21;3.50;;;1.90;;
21330;SDS011;10824;51.632;4.950;2023-11-21T12:11:50;3.33;;;1.77;;
21330;SDS011;10824;51.632;4.950;2023-11-21T12:14:17;3.05;;;1.95;;
21330;SDS011;10824;51.632;4.950;2023-11-21T12:16:44;2.95;;;2.22;;
21330;SDS011;10824;51.632;4.950;2023-11-21T12:19:12;2.55;;;1.27;;
21330;SDS011;10824;51.632;4.950;2023-11-21T12:21:39;4.70;;;1.92;;
21330;SDS011;10824;51.632;4.950;2023-11-21T12:24:10;2.35;;;1.35;;
21330;SDS011;10824;51.632;4.950;2023-11-21T12:26:41;2.75;;;1.40;;
21330;SDS011;10824;51.632;4.950;2023-11-21T12:29:10;1.52;;;1.40;;
21330;SDS011;10824;51.632;4.950;2023-11-21T12:31:38;1.95;;;1.42;;
21330;SDS011;10824;51.632;4.950;2023-11-21T12:34:06;3.45;;;1.42;;
21330;SDS011;10824;51.632;4.950;2023-11-21T12:36:35;3.55;;;2.13;;
21330;SDS011;10824;51.632;4.950;2023-11-21T12:39:02;6.47;;;2.05;;
21330;SDS011;10824;51.632;4.950;2023-11-21T12:41:29;7.07;;;1.67;;
21330;SDS011;10824;51.632;4.950;2023-11-21T12:43:57;2.80;;;1.85;;
21330;SDS011;10824;51.632;4.950;2023-11-21T12:46:25;2.78;;;2.58;;
21330;SDS011;10824;51.632;4.950;2023-11-21T12:48:56;10.33;;;3.03;;
21330;SDS011;10824;51.632;4.950;2023-11-21T12:51:24;2.47;;;1.60;;
21330;SDS011;10824;51.632;4.950;2023-11-21T12:53:51;4.85;;;2.35;;
21330;SDS011;10824;51.632;4.950;2023-11-21T12:56:21;8.30;;;1.83;;
21330;SDS011;10824;51.632;4.950;2023-11-21T12:58:50;4.60;;;2.67;;
21330;SDS011;10824;51.632;4.950;2023-11-21T13:01:20;5.88;;;2.97;;
21330;SDS011;10824;51.632;4.950;2023-11-21T13:03:53;6.15;;;2.90;;
21330;SDS011;10824;51.632;4.950;2023-11-21T13:06:20;4.63;;;2.35;;
21330;SDS011;10824;51.632;4.950;2023-11-21T13:08:51;4.60;;;2.70;;
21330;SDS011;10824;51.632;4.950;2023-11-21T13:11:18;5.55;;;2.60;;
21330;SDS011;10824;51.632;4.950;2023-11-21T13:13:46;5.32;;;3.03;;
21330;SDS011;10824;51.632;4.950;2023-11-21T13:16:13;3.85;;;2.13;;
21330;SDS011;10824;51.632;4.950;2023-11-21T13:18:41;4.18;;;2.67;;
21330;SDS011;10824;51.632;4.950;2023-11-21T13:21:09;20.80;;;4.63;;
21330;SDS011;10824;51.632;4.950;2023-11-21T13:23:40;12.20;;;3.75;;
21330;SDS011;10824;51.632;4.950;2023-11-21T13:26:08;4.72;;;2.53;;
21330;SDS011;10824;51.632;4.950;2023-11-21T13:28:36;8.00;;;2.42;;
21330;SDS011;10824;51.632;4.950;2023-11-21T13:31:05;11.07;;;3.90;;
21330;SDS011;10824;51.632;4.950;2023-11-21T13:33:40;5.50;;;3.03;;
21330;SDS011;10824;51.632;4.950;2023-11-21T13:36:09;3.50;;;2.28;;
21330;SDS011;10824;51.632;4.950;2023-11-21T13:38:37;3.83;;;1.95;;
21330;SDS011;10824;51.632;4.950;2023-11-21T13:41:09;5.72;;;2.17;;
21330;SDS011;10824;51.632;4.950;2023-11-21T13:43:39;6.85;;;2.42;;
21330;SDS011;10824;51.632;4.950;2023-11-21T13:46:10;6.07;;;2.50;;
21330;SDS011;10824;51.632;4.950;2023-11-21T13:48:43;4.55;;;2.08;;
21330;SDS011;10824;51.632;4.950;2023-11-21T13:51:17;7.30;;;3.67;;
21330;SDS011;10824;51.632;4.950;2023-11-21T13:53:48;7.40;;;3.08;;
21330;SDS011;10824;51.632;4.950;2023-11-21T13:56:19;5.43;;;2.88;;
21330;SDS011;10824;51.632;4.950;2023-11-21T13:58:51;8.63;;;3.95;;
21330;SDS011;10824;51.632;4.950;2023-11-21T14:01:20;5.03;;;3.80;;
21330;SDS011;10824;51.632;4.950;2023-11-21T14:03:57;7.60;;;3.25;;
21330;SDS011;10824;51.632;4.950;2023-11-21T14:06:40;6.97;;;2.13;;
21330;SDS011;10824;51.632;4.950;2023-11-21T14:09:18;4.78;;;2.92;;
21330;SDS011;10824;51.632;4.950;2023-11-21T14:11:52;4.57;;;2.58;;
21330;SDS011;10824;51.632;4.950;2023-11-21T14:14:23;5.50;;;2.92;;
21330;SDS011;10824;51.632;4.950;2023-11-21T14:16:52;7.30;;;3.58;;
21330;SDS011;10824;51.632;4.950;2023-11-21T14:19:20;4.35;;;2.42;;
21330;SDS011;10824;51.632;4.950;2023-11-21T14:21:47;4.55;;;2.63;;
21330;SDS011;10824;51.632;4.950;2023-11-21T14:24:15;3.75;;;2.47;;
21330;SDS011;10824;51.632;4.950;2023-11-21T14:26:45;6.53;;;2.70;;
21330;SDS011;10824;51.632;4.950;2023-11-21T14:29:13;3.38;;;1.70;;
21330;SDS011;10824;51.632;4.950;2023-11-21T14:31:46;7.40;;;3.22;;
21330;SDS011;10824;51.632;4.950;2023-11-21T14:34:14;4.47;;;2.08;;
21330;SDS011;10824;51.632;4.950;2023-11-21T14:36:46;9.88;;;3.08;;
21330;SDS011;10824;51.632;4.950;2023-11-21T14:39:15;6.60;;;3.45;;
21330;SDS011;10824;51.632;4.950;2023-11-21T14:42:03;6.78;;;3.53;;
21330;SDS011;10824;51.632;4.950;2023-11-21T14:44:31;6.07;;;3.58;;
21330;SDS011;10824;51.632;4.950;2023-11-21T14:47:04;5.78;;;3.70;;
21330;SDS011;10824;51.632;4.950;2023-11-21T14:49:39;8.90;;;3.55;;
21330;SDS011;10824;51.632;4.950;2023-11-21T14:52:19;14.75;;;4.30;;
21330;SDS011;10824;51.632;4.950;2023-11-21T14:55:02;3.90;;;2.85;;
21330;SDS011;10824;51.632;4.950;2023-11-21T14:57:47;9.25;;;3.55;;
21330;SDS011;10824;51.632;4.950;2023-11-21T15:00:17;7.68;;;3.15;;
21330;SDS011;10824;51.632;4.950;2023-11-21T15:03:01;7.63;;;3.50;;
21330;SDS011;10824;51.632;4.950;2023-11-21T15:05:29;7.63;;;3.38;;
21330;SDS011;10824;51.632;4.950;2023-11-21T15:07:56;11.93;;;4.57;;
21330;SDS011;10824;51.632;4.950;2023-11-21T15:10:34;6.57;;;3.78;;
21330;SDS011;10824;51.632;4.950;2023-11-21T15:13:12;9.05;;;4.75;;